Time,TemperatureF,DewpointF,PressureIn,WindDirection,WindDirectionDegrees,WindSpeedMPH,WindSpeedGustMPH,Humidity,HourlyPrecipIn,Conditions,Clouds,dailyrainin,SoftwareType,DateUTC
2013-03-14 00:02:00,15.0,4.0,-100.00,WNW,290,0.0,1.0,63,0.00,,,-99.99,,2013-03-14 05:02:00,
2013-03-14 00:12:00,15.0,4.0,-100.00,WNW,290,0.0,1.0,63,0.00,,,-99.99,,2013-03-14 05:12:00,
2013-03-14 00:22:00,15.0,4.0,-100.00,WNW,290,0.0,1.0,63,0.00,,,-99.99,,2013-03-14 05:22:00,
2013-03-14 00:33:00,15.0,4.0,-100.00,WNW,290,0.0,1.0,63,0.00,,,-99.99,,2013-03-14 05:33:00,
2013-03-14 00:41:00,14.0,5.0,-100.00,NW,320,1.0,2.0,67,0.00,,,-99.99,,2013-03-14 05:41:00,
2013-03-14 01:02:00,14.0,5.0,-100.00,NW,320,1.0,2.0,67,0.00,,,-99.99,,2013-03-14 06:02:00,
2013-03-14 01:12:00,14.0,5.0,-100.00,NW,320,1.0,2.0,67,0.00,,,-99.99,,2013-03-14 06:12:00,
2013-03-14 01:22:00,14.0,5.0,-100.00,NW,320,1.0,2.0,67,0.00,,,-99.99,,2013-03-14 06:22:00,
2013-03-14 01:32:00,14.0,5.0,-100.00,NW,320,1.0,2.0,67,0.00,,,-99.99,,2013-03-14 06:32:00,
2013-03-14 02:41:00,9.0,2.0,-100.00,NW,310,1.0,3.0,73,0.00,,,-99.99,,2013-03-14 07:41:00,
2013-03-14 03:02:00,9.0,2.0,-100.00,NW,310,1.0,3.0,73,0.00,,,-99.99,,2013-03-14 08:02:00,
2013-03-14 03:12:00,9.0,2.0,-100.00,NW,310,1.0,3.0,73,0.00,,,-99.99,,2013-03-14 08:12:00,
2013-03-14 03:22:00,9.0,2.0,-100.00,NW,310,1.0,3.0,73,0.00,,,-99.99,,2013-03-14 08:22:00,
2013-03-14 03:32:00,9.0,2.0,-100.00,NW,310,1.0,3.0,73,0.00,,,-99.99,,2013-03-14 08:32:00,
2013-03-14 04:01:00,7.0,1.0,-100.00,North,350,0.0,1.0,75,0.00,,,-99.99,,2013-03-14 09:01:00,
2013-03-14 04:12:00,7.0,1.0,-100.00,North,350,0.0,1.0,75,0.00,,,-99.99,,2013-03-14 09:12:00,
2013-03-14 04:22:00,7.0,1.0,-100.00,North,350,0.0,1.0,75,0.00,,,-99.99,,2013-03-14 09:22:00,
2013-03-14 04:32:00,7.0,1.0,-100.00,North,350,0.0,1.0,75,0.00,,,-99.99,,2013-03-14 09:32:00,
2013-03-14 05:02:00,6.0,0.0,-100.00,North,5,0.0,1.0,77,0.00,,,-99.99,,2013-03-14 10:02:00,
2013-03-14 05:12:00,6.0,0.0,-100.00,North,5,0.0,1.0,77,0.00,,,-99.99,,2013-03-14 10:12:00,
2013-03-14 05:22:00,6.0,0.0,-100.00,North,5,0.0,1.0,77,0.00,,,-99.99,,2013-03-14 10:22:00,
2013-03-14 05:32:00,6.0,0.0,-100.00,North,5,0.0,1.0,77,0.00,,,-99.99,,2013-03-14 10:32:00,
2013-03-14 05:40:00,5.0,0.0,-100.00,WNW,295,1.0,2.0,78,0.00,,,-99.99,,2013-03-14 10:40:00,
2013-03-14 06:02:00,5.0,0.0,-100.00,WNW,295,1.0,2.0,78,0.00,,,-99.99,,2013-03-14 11:02:00,
2013-03-14 06:12:00,5.0,0.0,-100.00,WNW,295,1.0,2.0,78,0.00,,,-99.99,,2013-03-14 11:12:00,
2013-03-14 06:22:00,5.0,0.0,-100.00,WNW,295,1.0,2.0,78,0.00,,,-99.99,,2013-03-14 11:22:00,
2013-03-14 06:33:00,5.0,0.0,-100.00,WNW,295,1.0,2.0,78,0.00,,,-99.99,,2013-03-14 11:33:00,
2013-03-14 07:02:00,4.0,-1.0,-100.00,North,355,0.0,3.0,79,0.00,,,-99.99,,2013-03-14 12:02:00,
2013-03-14 07:12:00,4.0,-1.0,-100.00,North,355,0.0,3.0,79,0.00,,,-99.99,,2013-03-14 12:12:00,
2013-03-14 07:22:00,4.0,-1.0,-100.00,North,355,0.0,3.0,79,0.00,,,-99.99,,2013-03-14 12:22:00,
2013-03-14 07:33:00,4.0,-1.0,-100.00,North,355,0.0,3.0,79,0.00,,,-99.99,,2013-03-14 12:33:00,
2013-03-14 07:41:00,3.0,-2.0,-100.00,West,280,1.0,3.0,80,0.00,,,-99.99,,2013-03-14 12:41:00,
2013-03-14 08:02:00,3.0,-2.0,-100.00,West,280,1.0,3.0,80,0.00,,,-99.99,,2013-03-14 13:02:00,
2013-03-14 08:12:00,3.0,-2.0,-100.00,West,280,1.0,3.0,80,0.00,,,-99.99,,2013-03-14 13:12:00,
2013-03-14 08:22:00,3.0,-2.0,-100.00,West,280,1.0,3.0,80,0.00,,,-99.99,,2013-03-14 13:22:00,
2013-03-14 08:32:00,3.0,-2.0,-100.00,West,280,1.0,3.0,80,0.00,,,-99.99,,2013-03-14 13:32:00,
2013-03-14 09:02:00,15.0,7.0,-100.00,West,275,0.0,2.0,70,0.00,,,-99.99,,2013-03-14 14:02:00,
2013-03-14 09:12:00,15.0,7.0,-100.00,West,275,0.0,2.0,70,0.00,,,-99.99,,2013-03-14 14:12:00,
2013-03-14 09:22:00,15.0,7.0,-100.00,West,275,0.0,2.0,70,0.00,,,-99.99,,2013-03-14 14:22:00,
2013-03-14 09:32:00,15.0,7.0,-100.00,West,275,0.0,2.0,70,0.00,,,-99.99,,2013-03-14 14:32:00,
2013-03-14 10:02:00,25.0,6.0,-100.00,SSE,165,7.0,9.0,44,0.00,,,-99.99,,2013-03-14 15:02:00,
2013-03-14 10:12:00,25.0,6.0,-100.00,SSE,165,7.0,9.0,44,0.00,,,-99.99,,2013-03-14 15:12:00,
2013-03-14 10:22:00,25.0,6.0,-100.00,SSE,165,7.0,9.0,44,0.00,,,-99.99,,2013-03-14 15:22:00,
2013-03-14 10:32:00,25.0,6.0,-100.00,SSE,165,7.0,9.0,44,0.00,,,-99.99,,2013-03-14 15:32:00,
2013-03-14 11:40:00,38.0,3.0,-100.00,SSW,210,2.0,7.0,22,0.00,,,-99.99,,2013-03-14 16:40:00,
2013-03-14 12:02:00,38.0,3.0,-100.00,SSW,210,2.0,7.0,22,0.00,,,-99.99,,2013-03-14 17:02:00,
2013-03-14 12:12:00,38.0,3.0,-100.00,SSW,210,2.0,7.0,22,0.00,,,-99.99,,2013-03-14 17:12:00,
2013-03-14 12:23:00,38.0,3.0,-100.00,SSW,210,2.0,7.0,22,0.00,,,-99.99,,2013-03-14 17:23:00,
2013-03-14 12:32:00,38.0,3.0,-100.00,SSW,210,2.0,7.0,22,0.00,,,-99.99,,2013-03-14 17:32:00,
2013-03-14 13:12:00,36.0,9.0,-100.00,SSW,205,6.0,9.0,31,0.00,,,-99.99,,2013-03-14 18:12:00,
2013-03-14 13:22:00,36.0,9.0,-100.00,SSW,205,6.0,9.0,31,0.00,,,-99.99,,2013-03-14 18:22:00,
2013-03-14 13:33:00,36.0,9.0,-100.00,SSW,205,6.0,9.0,31,0.00,,,-99.99,,2013-03-14 18:33:00,
2013-03-14 13:40:00,33.0,16.0,-100.00,West,275,7.0,12.0,48,0.00,,,-99.99,,2013-03-14 18:40:00,
2013-03-14 14:03:00,33.0,16.0,-100.00,West,275,7.0,12.0,48,0.00,,,-99.99,,2013-03-14 19:03:00,
2013-03-14 14:12:00,33.0,16.0,-100.00,West,275,7.0,12.0,48,0.00,,,-99.99,,2013-03-14 19:12:00,
2013-03-14 14:23:00,33.0,16.0,-100.00,West,275,7.0,12.0,48,0.00,,,-99.99,,2013-03-14 19:23:00,
2013-03-14 14:32:00,33.0,16.0,-100.00,West,275,7.0,12.0,48,0.00,,,-99.99,,2013-03-14 19:32:00,
2013-03-14 14:42:00,37.0,17.0,-100.00,SSW,195,3.0,12.0,44,0.00,,,-99.99,,2013-03-14 19:42:00,
2013-03-14 15:02:00,37.0,17.0,-100.00,SSW,195,3.0,12.0,44,0.00,,,-99.99,,2013-03-14 20:02:00,
2013-03-14 15:12:00,37.0,17.0,-100.00,SSW,195,3.0,12.0,44,0.00,,,-99.99,,2013-03-14 20:12:00,
2013-03-14 15:22:00,37.0,17.0,-100.00,SSW,195,3.0,12.0,44,0.00,,,-99.99,,2013-03-14 20:22:00,
2013-03-14 15:32:00,37.0,17.0,-100.00,SSW,195,3.0,12.0,44,0.00,,,-99.99,,2013-03-14 20:32:00,
2013-03-14 16:02:00,38.0,18.0,-100.00,WSW,240,6.0,10.0,44,0.00,,,-99.99,,2013-03-14 21:02:00,
2013-03-14 16:12:00,38.0,18.0,-100.00,WSW,240,6.0,10.0,44,0.00,,,-99.99,,2013-03-14 21:12:00,
2013-03-14 16:22:00,38.0,18.0,-100.00,WSW,240,6.0,10.0,44,0.00,,,-99.99,,2013-03-14 21:22:00,
2013-03-14 16:32:00,38.0,18.0,-100.00,WSW,240,6.0,10.0,44,0.00,,,-99.99,,2013-03-14 21:32:00,
2013-03-14 16:41:00,40.0,20.0,-100.00,SSW,195,2.0,11.0,45,0.00,,,-99.99,,2013-03-14 21:41:00,
2013-03-14 17:03:00,40.0,20.0,-100.00,SSW,195,2.0,11.0,45,0.00,,,-99.99,,2013-03-14 22:03:00,
2013-03-14 17:13:00,40.0,20.0,-100.00,SSW,195,2.0,11.0,45,0.00,,,-99.99,,2013-03-14 22:13:00,
2013-03-14 17:23:00,40.0,20.0,-100.00,SSW,195,2.0,11.0,45,0.00,,,-99.99,,2013-03-14 22:23:00,
2013-03-14 17:33:00,40.0,20.0,-100.00,SSW,195,2.0,11.0,45,0.00,,,-99.99,,2013-03-14 22:33:00,
2013-03-14 18:02:00,38.0,19.0,-100.00,WSW,250,4.0,13.0,47,0.00,,,-99.99,,2013-03-14 23:02:00,
2013-03-14 18:12:00,38.0,19.0,-100.00,WSW,250,4.0,13.0,47,0.00,,,-99.99,,2013-03-14 23:12:00,
2013-03-14 18:22:00,38.0,19.0,-100.00,WSW,250,4.0,13.0,47,0.00,,,-99.99,,2013-03-14 23:22:00,
2013-03-14 18:33:00,38.0,19.0,-100.00,WSW,250,4.0,13.0,47,0.00,,,-99.99,,2013-03-14 23:33:00,
2013-03-14 18:42:00,37.0,19.0,-100.00,WSW,245,2.0,14.0,48,0.00,,,-99.99,,2013-03-14 23:42:00,
2013-03-14 19:02:00,37.0,19.0,-100.00,WSW,245,2.0,14.0,48,0.00,,,-99.99,,2013-03-15 00:02:00,
2013-03-14 19:12:00,37.0,19.0,-100.00,WSW,245,2.0,14.0,48,0.00,,,-99.99,,2013-03-15 00:12:00,
2013-03-14 19:22:00,37.0,19.0,-100.00,WSW,245,2.0,14.0,48,0.00,,,-99.99,,2013-03-15 00:22:00,
2013-03-14 19:32:00,37.0,19.0,-100.00,WSW,245,2.0,14.0,48,0.00,,,-99.99,,2013-03-15 00:32:00,
2013-03-14 19:40:00,35.0,20.0,-100.00,WSW,255,4.0,7.0,55,0.00,,,-99.99,,2013-03-15 00:40:00,
2013-03-14 20:02:00,35.0,20.0,-100.00,WSW,255,4.0,7.0,55,0.00,,,-99.99,,2013-03-15 01:02:00,
2013-03-14 20:12:00,35.0,20.0,-100.00,WSW,255,4.0,7.0,55,0.00,,,-99.99,,2013-03-15 01:12:00,
2013-03-14 20:22:00,35.0,20.0,-100.00,WSW,255,4.0,7.0,55,0.00,,,-99.99,,2013-03-15 01:22:00,
2013-03-14 20:32:00,35.0,20.0,-100.00,WSW,255,4.0,7.0,55,0.00,,,-99.99,,2013-03-15 01:32:00,
2013-03-14 20:42:00,33.0,20.0,-100.00,West,270,6.0,11.0,59,0.00,,,-99.99,,2013-03-15 01:42:00,
2013-03-14 21:02:00,33.0,20.0,-100.00,West,270,6.0,11.0,59,0.00,,,-99.99,,2013-03-15 02:02:00,
2013-03-14 21:12:00,33.0,20.0,-100.00,West,270,6.0,11.0,59,0.00,,,-99.99,,2013-03-15 02:12:00,
2013-03-14 21:22:00,33.0,20.0,-100.00,West,270,6.0,11.0,59,0.00,,,-99.99,,2013-03-15 02:22:00,
2013-03-14 21:32:00,33.0,20.0,-100.00,West,270,6.0,11.0,59,0.00,,,-99.99,,2013-03-15 02:32:00,
2013-03-14 21:41:00,34.0,20.0,-100.00,West,275,5.0,14.0,58,0.00,,,-99.99,,2013-03-15 02:41:00,
2013-03-14 22:02:00,34.0,20.0,-100.00,West,275,5.0,14.0,58,0.00,,,-99.99,,2013-03-15 03:02:00,
2013-03-14 22:12:00,34.0,20.0,-100.00,West,275,5.0,14.0,58,0.00,,,-99.99,,2013-03-15 03:12:00,
2013-03-14 22:22:00,34.0,20.0,-100.00,West,275,5.0,14.0,58,0.00,,,-99.99,,2013-03-15 03:22:00,
2013-03-14 22:33:00,34.0,20.0,-100.00,West,275,5.0,14.0,58,0.00,,,-99.99,,2013-03-15 03:33:00,
2013-03-14 23:03:00,33.0,20.0,-100.00,West,275,6.0,15.0,59,0.00,,,-99.99,,2013-03-15 04:03:00,
2013-03-14 23:12:00,33.0,20.0,-100.00,West,275,6.0,15.0,59,0.00,,,-99.99,,2013-03-15 04:12:00,
2013-03-14 23:23:00,33.0,20.0,-100.00,West,275,6.0,15.0,59,0.00,,,-99.99,,2013-03-15 04:23:00,
2013-03-14 23:32:00,33.0,20.0,-100.00,West,275,6.0,15.0,59,0.00,,,-99.99,,2013-03-15 04:32:00,
2013-03-14 23:40:00,33.0,20.0,-100.00,West,275,7.0,11.0,61,0.00,,,-99.99,,2013-03-15 04:40:00,